Time;durP1;ratioP1;P1;durP2;ratioP2;P2;SDS_P1;SDS_P2;PMS_P1;PMS_P2;Temp;Humidity;BMP_temperature;BMP_pressure;BME280_temperature;BME280_humidity;BME280_pressure;Samples;Min_cycle;Max_cycle;Signal;HPM_P1;HPM_P2
2023/08/08 00:01:03;;;;;;;0.00;0.00;;;;;;;16.77;60.09;99703.25;4265923;33;20100;-91
2023/08/08 00:03:28;;;;;;;2.53;1.65;;;;;;;16.70;60.09;99709.81;4266504;33;20180;-90
2023/08/08 00:05:53;;;;;;;0.00;0.00;;;;;;;16.70;60.10;99710.66;4266676;33;20126;-91
2023/08/08 00:08:19;;;;;;;3.90;1.08;;;;;;;16.53;60.09;99713.38;4266347;33;22789;-91
2023/08/08 00:10:44;;;;;;;22.17;1.02;;;;;;;16.69;60.09;99708.97;4266312;33;20159;-90
2023/08/08 00:13:10;;;;;;;0.00;0.00;;;;;;;16.64;60.09;99711.00;4278476;33;20177;-91
2023/08/08 00:15:36;;;;;;;1.85;1.27;;;;;;;16.60;60.09;99714.72;4266072;33;20537;-91
2023/08/08 00:18:01;;;;;;;0.00;0.00;;;;;;;16.74;60.09;99719.22;4278339;33;20450;-90
2023/08/08 00:20:27;;;;;;;0.00;0.00;;;;;;;16.97;60.11;99715.25;4266312;33;20163;-91
2023/08/08 00:22:52;;;;;;;0.00;0.00;;;;;;;16.72;60.10;99715.84;4266617;33;20306;-89
2023/08/08 00:25:17;;;;;;;0.00;0.00;;;;;;;16.71;60.10;99724.66;4267919;33;20096;-90
2023/08/08 00:27:43;;;;;;;0.00;0.00;;;;;;;16.71;60.10;99725.50;4267806;33;20111;-91
2023/08/08 00:30:11;;;;;;;0.00;0.00;;;;;;;16.71;60.10;99716.75;4268312;33;20157;-91
2023/08/08 00:32:36;;;;;;;0.00;0.00;;;;;;;16.95;60.11;99717.13;4268314;33;20116;-92
2023/08/08 00:35:01;;;;;;;0.00;0.00;;;;;;;16.68;60.09;99717.78;4268247;33;20156;-92
2023/08/08 00:37:27;;;;;;;1.50;0.32;;;;;;;16.55;60.09;99719.37;4268315;33;20156;-91
2023/08/08 00:39:52;;;;;;;0.00;0.00;;;;;;;16.55;60.09;99722.84;4267802;33;24496;-92
2023/08/08 00:42:18;;;;;;;0.00;0.00;;;;;;;16.36;60.07;99710.87;4267911;33;20148;-90
2023/08/08 00:44:43;;;;;;;0.15;0.15;;;;;;;16.27;60.08;99720.94;4267988;33;20097;-92
2023/08/08 00:47:08;;;;;;;0.17;0.10;;;;;;;16.17;60.07;99722.41;4267644;33;20466;-92
2023/08/08 00:49:34;;;;;;;1.75;0.75;;;;;;;16.13;60.06;99723.50;4268113;33;20160;-91
2023/08/08 00:52:00;;;;;;;0.35;0.35;;;;;;;16.19;60.07;99728.41;4267863;33;20117;-92
2023/08/08 00:54:25;;;;;;;1.23;0.73;;;;;;;16.02;60.06;99725.84;4267406;33;30507;-92
2023/08/08 00:56:50;;;;;;;0.00;0.00;;;;;;;15.89;60.06;99728.31;4268542;33;20088;-90
2023/08/08 00:59:16;;;;;;;0.00;0.00;;;;;;;16.02;60.06;99725.00;4267765;33;20128;-89
2023/08/08 01:01:41;;;;;;;0.00;0.00;;;;;;;16.08;60.06;99725.50;4267357;33;33454;-88
2023/08/08 01:04:07;;;;;;;0.00;0.00;;;;;;;16.00;60.06;99724.25;4267717;33;20116;-88
2023/08/08 01:06:46;;;;;;;0.00;0.00;;;;;;;16.01;60.05;99720.69;4267750;33;20360;-90
2023/08/08 01:09:29;;;;;;;0.00;0.00;;;;;;;16.07;60.06;99726.44;4279763;33;20699;-89
2023/08/08 01:11:54;;;;;;;0.03;0.03;;;;;;;15.93;60.06;99724.59;4280166;33;20223;-91
2023/08/08 01:14:19;;;;;;;0.00;0.00;;;;;;;15.84;60.05;99718.97;4268404;33;20377;-90
2023/08/08 01:16:45;;;;;;;0.00;0.00;;;;;;;15.84;60.05;99727.69;4269496;33;20474;-90
2023/08/08 01:19:12;;;;;;;0.00;0.00;;;;;;;15.83;60.05;99727.78;4269439;33;25974;-90
2023/08/08 01:21:40;;;;;;;0.00;0.00;;;;;;;15.83;60.05;99722.53;4267239;33;20108;-90
2023/08/08 01:24:20;;;;;;;0.00;0.00;;;;;;;15.81;60.05;99721.78;4268099;33;20096;-88
2023/08/08 01:26:46;;;;;;;2.45;1.02;;;;;;;15.79;60.05;99716.59;4267955;33;20156;-90
2023/08/08 01:29:11;;;;;;;0.00;0.00;;;;;;;15.60;60.03;99715.88;4268035;33;20092;-90
2023/08/08 01:31:37;;;;;;;0.00;0.00;;;;;;;15.57;60.04;99718.66;4267579;33;20173;-90
2023/08/08 01:34:02;;;;;;;0.73;0.30;;;;;;;15.55;60.04;99716.09;4267333;33;20152;-90
2023/08/08 01:36:30;;;;;;;1.87;1.00;;;;;;;15.54;60.03;99713.56;4267466;33;20135;-90
2023/08/08 01:38:59;;;;;;;0.00;0.00;;;;;;;15.51;60.04;99711.09;4268101;33;20136;-89
2023/08/08 01:41:25;;;;;;;0.47;0.47;;;;;;;15.60;60.03;99711.47;4268093;33;20764;-91
2023/08/08 01:43:50;;;;;;;0.00;0.00;;;;;;;15.56;60.04;99715.19;4268032;33;20117;-90
2023/08/08 01:46:15;;;;;;;0.00;0.00;;;;;;;15.54;60.03;99714.41;4267881;33;20144;-90
2023/08/08 01:48:44;;;;;;;0.00;0.00;;;;;;;15.54;60.03;99717.03;4267996;33;20144;-91
2023/08/08 01:51:10;;;;;;;0.00;0.00;;;;;;;15.26;60.02;99724.66;4267966;33;20112;-90
2023/08/08 01:53:35;;;;;;;0.00;0.00;;;;;;;15.21;60.02;99724.03;4267676;33;20553;-90
2023/08/08 01:56:02;;;;;;;0.00;0.00;;;;;;;15.26;60.02;99729.91;4267160;33;27161;-90
2023/08/08 01:58:28;;;;;;;1.00;0.75;;;;;;;15.25;60.03;99725.56;4267892;33;20093;-90
2023/08/08 02:00:53;;;;;;;0.00;0.00;;;;;;;15.21;60.01;99719.66;4267356;33;20100;-90
2023/08/08 02:03:19;;;;;;;1.23;0.98;;;;;;;15.18;60.02;99726.84;4267883;33;20429;-90
2023/08/08 02:05:44;;;;;;;0.45;0.45;;;;;;;15.34;60.03;99728.56;4267429;33;23354;-90
2023/08/08 02:08:10;;;;;;;0.40;0.40;;;;;;;15.30;60.02;99729.66;4267528;33;27115;-90
2023/08/08 02:10:35;;;;;;;0.00;0.00;;;;;;;15.34;60.02;99731.19;4267715;33;20103;-89
2023/08/08 02:13:00;;;;;;;0.00;0.00;;;;;;;15.43;60.03;99729.03;4267297;33;24963;-89
2023/08/08 02:15:26;;;;;;;0.00;0.00;;;;;;;15.40;60.03;99744.94;4267610;33;20152;-89
2023/08/08 02:17:52;;;;;;;0.65;0.32;;;;;;;15.40;60.03;99734.44;4267499;33;20127;-90
2023/08/08 02:20:18;;;;;;;2.20;0.70;;;;;;;15.31;60.02;99738.38;4267733;33;20125;-89
2023/08/08 02:22:43;;;;;;;0.00;0.00;;;;;;;15.32;60.03;99738.28;4267514;33;20088;-89
2023/08/08 02:25:08;;;;;;;0.00;0.00;;;;;;;15.36;60.02;99745.06;4267223;33;20103;-89
2023/08/08 02:27:34;;;;;;;0.00;0.00;;;;;;;15.32;60.03;99740.06;4267710;33;20108;-90
2023/08/08 02:29:59;;;;;;;0.08;0.08;;;;;;;15.33;60.02;99747.00;4267781;33;20491;-90
2023/08/08 02:32:25;;;;;;;0.00;0.00;;;;;;;15.23;60.02;99749.25;4267794;33;20097;-89
2023/08/08 02:34:50;;;;;;;0.00;0.00;;;;;;;15.35;60.02;99756.47;4267678;33;20121;-90
2023/08/08 02:37:16;;;;;;;0.10;0.10;;;;;;;15.34;60.02;99764.44;4267617;33;20182;-91
2023/08/08 02:39:43;;;;;;;0.10;0.10;;;;;;;15.36;60.02;99763.41;4267903;33;20134;-90
2023/08/08 02:42:09;;;;;;;0.00;0.00;;;;;;;15.32;60.03;99761.03;4268265;33;20056;-90
2023/08/08 02:44:34;;;;;;;0.00;0.00;;;;;;;15.46;60.03;99761.19;4267529;33;20160;-90
2023/08/08 02:46:59;;;;;;;0.00;0.00;;;;;;;15.32;60.01;99769.75;4267252;33;20161;-91
2023/08/08 02:49:25;;;;;;;0.00;0.00;;;;;;;15.43;60.03;99768.38;4267678;33;20118;-90
2023/08/08 02:51:50;;;;;;;0.00;0.00;;;;;;;15.35;60.02;99761.72;4267843;33;20133;-91
2023/08/08 02:54:16;;;;;;;0.00;0.00;;;;;;;15.51;60.03;99761.78;4279303;33;25082;-90
2023/08/08 02:56:41;;;;;;;0.00;0.00;;;;;;;15.40;60.03;99774.63;4268152;33;20168;-90
2023/08/08 02:59:06;;;;;;;0.00;0.00;;;;;;;15.41;60.03;99765.84;4270924;33;20101;-90
2023/08/08 03:01:32;;;;;;;0.22;0.17;;;;;;;15.46;60.02;99771.69;4268119;33;20168;-90
2023/08/08 03:03:58;;;;;;;0.00;0.00;;;;;;;15.56;60.04;99764.16;4264726;33;20148;-90
2023/08/08 03:06:23;;;;;;;0.00;0.00;;;;;;;15.49;60.04;99766.28;4264810;33;20173;-90
2023/08/08 03:08:48;;;;;;;0.00;0.00;;;;;;;15.39;60.02;99765.06;4266737;33;20368;-90
2023/08/08 03:11:14;;;;;;;0.00;0.00;;;;;;;15.34;60.02;99762.66;4267353;33;20138;-91
2023/08/08 03:13:39;;;;;;;0.00;0.00;;;;;;;15.44;60.03;99768.28;4267737;33;20116;-90
2023/08/08 03:16:05;;;;;;;0.00;0.00;;;;;;;15.24;60.01;99774.56;4267064;33;20498;-90
2023/08/08 03:18:30;;;;;;;1.45;0.65;;;;;;;15.33;60.02;99774.06;4267576;33;20167;-91
2023/08/08 03:20:55;;;;;;;8.48;1.10;;;;;;;15.17;60.02;99780.19;4266728;33;25829;-90
2023/08/08 03:23:23;;;;;;;0.00;0.00;;;;;;;15.24;60.01;99784.19;4267011;33;21824;-90
2023/08/08 03:25:48;;;;;;;0.00;0.00;;;;;;;15.24;60.01;99782.44;4267901;33;20134;-90
2023/08/08 03:28:14;;;;;;;2.47;1.02;;;;;;;14.95;60.00;99797.00;4267169;33;20105;-90
2023/08/08 03:30:39;;;;;;;0.00;0.00;;;;;;;15.05;60.01;99797.38;4267040;33;20088;-90
2023/08/08 03:33:05;;;;;;;0.08;0.08;;;;;;;14.94;60.00;99803.16;4267087;33;20130;-90
2023/08/08 03:35:30;;;;;;;0.00;0.00;;;;;;;14.93;60.00;99800.63;4279184;33;20426;-90
2023/08/08 03:37:55;;;;;;;0.00;0.00;;;;;;;14.92;60.00;99793.69;4266497;33;25390;-89
2023/08/08 03:40:21;;;;;;;0.43;0.43;;;;;;;15.04;60.01;99800.91;4266621;33;28482;-89
2023/08/08 03:42:46;;;;;;;0.10;0.10;;;;;;;15.16;60.01;99809.97;4266895;33;20147;-89
2023/08/08 03:45:12;;;;;;;0.00;0.00;;;;;;;15.17;60.02;99804.66;4265695;33;20169;-88
2023/08/08 03:47:37;;;;;;;0.17;0.15;;;;;;;15.00;60.00;99812.50;4278281;33;20131;-89
2023/08/08 03:50:04;;;;;;;0.00;0.00;;;;;;;15.35;60.02;99813.34;4266604;33;20122;-87
2023/08/08 03:52:30;;;;;;;0.00;0.00;;;;;;;15.22;60.01;99807.03;4267335;33;20096;-90
2023/08/08 03:54:55;;;;;;;0.00;0.00;;;;;;;15.10;60.01;99810.25;4266677;33;20151;-89
2023/08/08 03:57:20;;;;;;;0.20;0.20;;;;;;;15.09;60.00;99813.78;4266153;33;20500;-90
2023/08/08 03:59:46;;;;;;;0.00;0.00;;;;;;;15.05;60.01;99810.47;4266792;33;20180;-90
2023/08/08 04:02:11;;;;;;;0.00;0.00;;;;;;;15.07;60.00;99820.88;4266756;33;20081;-91
2023/08/08 04:04:38;;;;;;;0.20;0.20;;;;;;;15.05;60.01;99821.81;4266538;33;28574;-90
2023/08/08 04:07:04;;;;;;;0.20;0.20;;;;;;;15.19;60.02;99828.16;4267409;33;20709;-89
2023/08/08 04:09:29;;;;;;;4.47;1.02;;;;;;;15.12;60.01;99832.00;4267322;33;20168;-89
2023/08/08 04:11:54;;;;;;;0.00;0.00;;;;;;;15.22;60.01;99828.00;4267268;33;20523;-90
2023/08/08 04:14:20;;;;;;;0.47;0.47;;;;;;;15.21;60.01;99842.91;4266709;33;21133;-90
2023/08/08 04:16:45;;;;;;;1.00;0.22;;;;;;;15.41;60.03;99838.44;4266554;33;22379;-91
2023/08/08 04:19:11;;;;;;;0.73;0.30;;;;;;;15.35;60.02;99839.56;4266988;33;20411;-92
2023/08/08 04:21:36;;;;;;;0.20;0.20;;;;;;;15.70;60.05;99845.69;4267103;33;20144;-91
2023/08/08 04:24:02;;;;;;;0.00;0.00;;;;;;;15.74;60.04;99846.38;4266932;33;20133;-92
2023/08/08 04:26:27;;;;;;;0.00;0.00;;;;;;;15.65;60.04;99852.97;4267582;33;20104;-91
2023/08/08 04:28:53;;;;;;;1.00;0.30;;;;;;;15.81;60.05;99847.75;4266463;33;20792;-90
2023/08/08 04:31:18;;;;;;;0.52;0.28;;;;;;;15.74;60.04;99844.59;4267079;33;20088;-90
2023/08/08 04:33:44;;;;;;;0.98;0.80;;;;;;;16.05;60.06;99850.88;4266883;33;20131;-91
2023/08/08 04:36:10;;;;;;;0.00;0.00;;;;;;;16.00;60.05;99843.25;4266950;33;20147;-89
2023/08/08 04:38:35;;;;;;;0.00;0.00;;;;;;;16.12;60.06;99853.12;4266792;33;20140;-88
2023/08/08 04:41:00;;;;;;;0.25;0.22;;;;;;;16.05;60.06;99853.50;4270634;33;20093;-90
2023/08/08 04:43:27;;;;;;;0.10;0.10;;;;;;;16.27;60.08;99848.81;4267708;33;20144;-90
2023/08/08 04:45:53;;;;;;;0.20;0.17;;;;;;;16.32;60.08;99845.91;4267015;33;20172;-90
2023/08/08 04:48:18;;;;;;;0.00;0.00;;;;;;;16.50;60.08;99851.03;4266771;33;20131;-90
2023/08/08 04:50:46;;;;;;;0.25;0.25;;;;;;;16.27;60.07;99849.66;4266151;33;24048;-90
2023/08/08 04:53:11;;;;;;;16.55;1.67;;;;;;;16.42;60.08;99855.00;4266879;33;20151;-88
2023/08/08 04:55:37;;;;;;;0.00;0.00;;;;;;;16.41;60.08;99855.94;4278422;33;20101;-90
2023/08/08 04:58:02;;;;;;;0.00;0.00;;;;;;;16.38;60.08;99859.59;4266702;33;20152;-90
2023/08/08 05:00:28;;;;;;;0.00;0.00;;;;;;;16.69;60.09;99853.53;4266620;33;20089;-90
2023/08/08 05:02:53;;;;;;;0.00;0.00;;;;;;;16.65;60.10;99857.22;4266899;33;20124;-90
2023/08/08 05:05:19;;;;;;;0.60;0.60;;;;;;;16.66;60.10;99864.22;4266502;33;20153;-90
2023/08/08 05:07:44;;;;;;;0.00;0.00;;;;;;;16.84;60.10;99865.84;4266223;33;20093;-91
2023/08/08 05:10:09;;;;;;;0.00;0.00;;;;;;;16.92;60.11;99870.66;4267318;33;20107;-90
2023/08/08 05:12:35;;;;;;;0.00;0.00;;;;;;;17.00;60.10;99875.47;4268465;33;20104;-90
2023/08/08 05:15:00;;;;;;;2.80;0.98;;;;;;;16.91;60.10;99868.09;4267914;33;20130;-89
2023/08/08 05:17:26;;;;;;;0.08;0.08;;;;;;;17.02;60.11;99863.06;4268355;33;20152;-91
2023/08/08 05:19:51;;;;;;;0.00;0.00;;;;;;;17.19;60.12;99863.81;4268082;33;26748;-88
2023/08/08 05:22:17;;;;;;;0.20;0.20;;;;;;;17.16;60.12;99868.41;4268140;33;21489;-90
2023/08/08 05:24:42;;;;;;;1.20;0.47;;;;;;;17.08;60.12;99878.53;4268308;33;20148;-90
2023/08/08 05:27:07;;;;;;;0.00;0.00;;;;;;;17.38;60.12;99876.78;4268722;33;20089;-91
2023/08/08 05:29:34;;;;;;;0.20;0.13;;;;;;;17.38;60.12;99878.56;4268460;33;20148;-88
2023/08/08 05:31:59;;;;;;;0.05;0.05;;;;;;;17.55;60.13;99880.22;4268078;33;20069;-89
2023/08/08 05:34:25;;;;;;;0.57;0.57;;;;;;;17.58;60.14;99882.66;4268452;33;20180;-90
2023/08/08 05:36:50;;;;;;;0.00;0.00;;;;;;;17.72;60.15;99872.19;4268500;33;20396;-92
2023/08/08 05:39:15;;;;;;;0.00;0.00;;;;;;;17.77;60.16;99885.94;4268811;33;20093;-91
2023/08/08 05:41:41;;;;;;;2.37;1.27;;;;;;;17.75;60.15;99879.91;4268274;33;20193;-88
2023/08/08 05:44:06;;;;;;;0.00;0.00;;;;;;;17.72;60.15;99880.06;4267810;33;20479;-89
2023/08/08 05:46:32;;;;;;;0.00;0.00;;;;;;;17.81;60.15;99882.19;4268626;33;20147;-96
2023/08/08 05:48:57;;;;;;;1.45;1.35;;;;;;;17.82;60.15;99894.41;4268574;33;20097;-95
2023/08/08 05:51:23;;;;;;;0.05;0.05;;;;;;;17.86;60.16;99890.66;4280437;33;20144;-95
2023/08/08 05:53:48;;;;;;;0.00;0.00;;;;;;;17.86;60.16;99893.28;4268452;33;20143;-95
2023/08/08 05:56:13;;;;;;;0.37;0.37;;;;;;;18.05;60.17;99887.75;4268626;33;20148;-95
2023/08/08 05:58:39;;;;;;;0.37;0.32;;;;;;;18.14;60.17;99888.97;4268132;33;20136;-95
2023/08/08 06:01:09;;;;;;;0.00;0.00;;;;;;;18.11;60.17;99884.75;4268492;33;20165;-96
2023/08/08 06:03:35;;;;;;;;;;;;;;;18.13;60.17;99882.03;4270207;33;20179;-95
2023/08/08 06:06:01;;;;;;;0.00;0.00;;;;;;;18.16;60.18;99881.81;4280583;33;20293;-96
2023/08/08 06:08:26;;;;;;;0.00;0.00;;;;;;;18.01;60.16;99883.62;4269128;33;20189;-96
2023/08/08 06:10:51;;;;;;;0.52;0.47;;;;;;;18.01;60.17;99879.22;4268079;33;20575;-94
2023/08/08 06:13:17;;;;;;;0.00;0.00;;;;;;;18.06;60.17;99882.41;4267895;33;20155;-96
2023/08/08 06:15:42;;;;;;;0.00;0.00;;;;;;;18.21;60.17;99883.22;4267617;33;20126;-96
2023/08/08 06:18:08;;;;;;;0.00;0.00;;;;;;;18.21;60.17;99892.94;4267765;33;20387;-95
2023/08/08 06:20:33;;;;;;;0.00;0.00;;;;;;;18.28;60.18;99891.63;4272730;33;20467;-96
2023/08/08 06:22:59;;;;;;;0.00;0.00;;;;;;;18.36;60.18;99894.63;4275404;33;20500;-94
2023/08/08 06:25:24;;;;;;;0.00;0.00;;;;;;;18.55;60.19;99900.47;4269122;33;20152;-94
2023/08/08 06:27:49;;;;;;;0.00;0.00;;;;;;;18.44;60.19;99899.41;4267755;33;20499;-95
2023/08/08 06:30:15;;;;;;;0.00;0.00;;;;;;;18.75;60.20;99893.13;4267597;33;20368;-95
2023/08/08 06:32:40;;;;;;;1.27;0.95;;;;;;;18.86;60.21;99890.62;4267764;33;20120;-95
2023/08/08 06:35:06;;;;;;;0.00;0.00;;;;;;;19.14;60.22;99900.25;4280066;33;20198;-95
2023/08/08 06:37:32;;;;;;;0.00;0.00;;;;;;;19.18;60.23;99901.78;4267749;33;20122;-96
2023/08/08 06:39:58;;;;;;;0.00;0.00;;;;;;;19.26;60.23;99896.84;4267774;33;20435;-96
2023/08/08 06:42:23;;;;;;;0.00;0.00;;;;;;;19.11;60.22;99889.91;4268538;33;20140;-95
2023/08/08 06:44:49;;;;;;;0.00;0.00;;;;;;;19.04;60.22;99893.91;4268196;33;20119;-94
2023/08/08 06:47:14;;;;;;;0.00;0.00;;;;;;;19.01;60.22;99887.03;4267548;33;20156;-95
2023/08/08 06:49:39;;;;;;;0.00;0.00;;;;;;;19.09;60.22;99895.28;4267431;33;20113;-95
2023/08/08 06:52:05;;;;;;;0.00;0.00;;;;;;;19.02;60.22;99894.00;4267192;33;20147;-94
2023/08/08 06:54:31;;;;;;;0.00;0.00;;;;;;;19.35;60.23;99898.84;4267220;33;20438;-95
2023/08/08 06:56:57;;;;;;;0.20;0.10;;;;;;;19.49;60.25;99888.25;4267355;33;20158;-94
2023/08/08 06:59:23;;;;;;;0.20;0.20;;;;;;;19.53;60.24;99896.81;4267887;33;20180;-94
2023/08/08 07:01:49;;;;;;;0.20;0.10;;;;;;;19.58;60.25;99900.00;4267838;33;20150;-95
2023/08/08 07:04:14;;;;;;;0.10;0.10;;;;;;;19.67;60.25;99899.41;4267529;33;20473;-95
2023/08/08 07:06:40;;;;;;;0.00;0.00;;;;;;;19.60;60.25;99906.03;4267488;33;20105;-94
2023/08/08 07:09:06;;;;;;;0.00;0.00;;;;;;;19.56;60.25;99899.25;4267138;33;20221;-95
2023/08/08 07:11:31;;;;;;;0.00;0.00;;;;;;;19.92;60.26;99898.59;4267427;33;20116;-94
2023/08/08 07:13:57;;;;;;;0.00;0.00;;;;;;;19.96;60.27;99904.50;4267334;33;20439;-95
2023/08/08 07:16:22;;;;;;;0.17;0.17;;;;;;;20.14;60.28;99905.91;4267709;33;20108;-94
2023/08/08 07:18:48;;;;;;;0.05;0.05;;;;;;;20.30;60.28;99909.16;4267254;33;20116;-95
2023/08/08 07:21:14;;;;;;;0.08;0.08;;;;;;;20.58;60.30;99907.25;4267606;33;20128;-95
2023/08/08 07:23:40;;;;;;;0.00;0.00;;;;;;;20.60;60.30;99908.84;4267437;33;20084;-94
2023/08/08 07:26:05;;;;;;;0.22;0.22;;;;;;;20.94;60.33;99907.28;4267161;33;20115;-93
2023/08/08 07:28:32;;;;;;;0.00;0.00;;;;;;;20.90;60.32;99911.09;4267174;33;20144;-95
2023/08/08 07:30:57;;;;;;;0.13;0.10;;;;;;;20.82;60.31;99911.66;4267452;33;20116;-94
2023/08/08 07:33:23;;;;;;;0.80;0.10;;;;;;;20.89;60.31;99920.00;4277760;33;20165;-94
2023/08/08 07:35:49;;;;;;;0.00;0.00;;;;;;;20.90;60.31;99920.84;4279133;33;20123;-94
2023/08/08 07:38:15;;;;;;;0.00;0.00;;;;;;;21.08;60.33;99919.50;4267290;33;20132;-94
2023/08/08 07:40:41;;;;;;;0.00;0.00;;;;;;;21.12;60.33;99924.47;4267384;33;20116;-95
2023/08/08 07:43:06;;;;;;;0.00;0.00;;;;;;;21.13;60.34;99923.50;4267395;33;20131;-94
2023/08/08 07:45:32;;;;;;;0.10;0.10;;;;;;;21.09;60.33;99931.78;4266951;33;20123;-93
2023/08/08 07:47:57;;;;;;;0.00;0.00;;;;;;;21.26;60.34;99933.22;4278923;33;20112;-95
2023/08/08 07:50:23;;;;;;;0.40;0.40;;;;;;;21.29;60.34;99931.19;4267903;33;20186;-93
2023/08/08 07:52:48;;;;;;;0.00;0.00;;;;;;;21.25;60.34;99932.37;4267281;33;20108;-93
2023/08/08 07:55:13;;;;;;;0.00;0.00;;;;;;;21.27;60.34;99932.25;4266647;33;20088;-94
2023/08/08 07:57:39;;;;;;;0.00;0.00;;;;;;;21.26;60.34;99927.91;4273449;33;20073;-93
2023/08/08 08:00:12;;;;;;;0.00;0.00;;;;;;;21.00;60.32;99927.16;4274345;33;20133;-94
2023/08/08 08:02:38;;;;;;;0.08;0.08;;;;;;;21.07;60.33;99917.81;4268663;33;20087;-95
2023/08/08 08:05:07;;;;;;;0.10;0.10;;;;;;;21.21;60.34;99930.03;4266880;33;20484;-94
2023/08/08 08:07:34;;;;;;;0.00;0.00;;;;;;;21.41;60.35;99918.88;4267588;33;20109;-94
2023/08/08 08:10:00;;;;;;;0.00;0.00;;;;;;;21.46;60.35;99919.34;4278716;33;20113;-94
2023/08/08 08:12:25;;;;;;;0.10;0.10;;;;;;;21.71;60.37;99926.31;4266784;33;20093;-94
2023/08/08 08:14:51;;;;;;;0.08;0.08;;;;;;;21.91;60.37;99928.31;4266858;33;20114;-96
2023/08/08 08:17:16;;;;;;;0.00;0.00;;;;;;;22.06;60.38;99923.69;4266659;33;20151;-94
2023/08/08 08:19:42;;;;;;;0.00;0.00;;;;;;;22.14;60.39;99923.94;4266998;33;20156;-94
2023/08/08 08:22:07;;;;;;;0.00;0.00;;;;;;;22.14;60.39;99926.56;4266631;33;20096;-94
2023/08/08 08:24:33;;;;;;;2.90;0.57;;;;;;;21.93;60.37;99929.03;4266881;33;20117;-94
2023/08/08 08:26:58;;;;;;;0.00;0.00;;;;;;;21.86;60.38;99927.81;4267024;33;20136;-93
2023/08/08 08:29:23;;;;;;;0.15;0.15;;;;;;;22.11;60.39;99933.94;4266713;33;20131;-95
2023/08/08 08:31:49;;;;;;;0.10;0.10;;;;;;;22.36;60.40;99939.87;4266339;33;20152;-95
2023/08/08 08:34:14;;;;;;;0.00;0.00;;;;;;;22.36;60.40;99936.38;4266662;33;20104;-93
2023/08/08 08:36:40;;;;;;;0.20;0.10;;;;;;;22.44;60.40;99933.09;4266352;33;20160;-93
2023/08/08 08:39:05;;;;;;;0.00;0.00;;;;;;;22.64;60.42;99943.00;4266320;33;20152;-93
2023/08/08 08:41:31;;;;;;;0.00;0.00;;;;;;;22.82;60.42;99948.69;4266110;33;20415;-93
2023/08/08 08:43:57;;;;;;;0.00;0.00;;;;;;;23.09;60.43;99945.63;4266656;33;20142;-93
2023/08/08 08:46:22;;;;;;;0.05;0.05;;;;;;;22.90;60.43;99947.13;4268193;33;20147;-93
2023/08/08 08:48:49;;;;;;;0.15;0.15;;;;;;;22.99;60.43;99939.41;4268132;33;20758;-94
2023/08/08 08:51:16;;;;;;;0.00;0.00;;;;;;;23.09;60.43;99935.88;4268224;33;20155;-93
2023/08/08 08:53:43;;;;;;;0.00;0.00;;;;;;;23.14;60.43;99932.81;4268151;33;20080;-94
2023/08/08 08:56:08;;;;;;;0.40;0.40;;;;;;;22.82;60.43;99935.44;4268010;33;20768;-94
2023/08/08 08:58:34;;;;;;;0.00;0.00;;;;;;;23.12;60.44;99934.78;4268326;33;20156;-94
2023/08/08 09:00:59;;;;;;;0.05;0.05;;;;;;;23.17;60.44;99933.41;4268207;33;20104;-93
2023/08/08 09:03:24;;;;;;;0.35;0.20;;;;;;;23.44;60.46;99929.50;4267962;33;20127;-94
2023/08/08 09:05:50;;;;;;;0.00;0.00;;;;;;;23.44;60.46;99927.69;4268191;33;20138;-94
2023/08/08 09:08:15;;;;;;;0.00;0.00;;;;;;;23.49;60.46;99929.97;4267888;33;20148;-94
2023/08/08 09:10:41;;;;;;;0.88;0.70;;;;;;;23.58;60.46;99932.72;4267745;33;20097;-93
2023/08/08 09:13:06;;;;;;;0.00;0.00;;;;;;;23.25;60.45;99938.13;4267877;33;20208;-94
2023/08/08 09:15:32;;;;;;;0.00;0.00;;;;;;;23.00;60.43;99935.78;4268497;33;20132;-94
2023/08/08 09:17:58;;;;;;;0.10;0.10;;;;;;;23.07;60.43;99934.31;4268043;33;20112;-95
2023/08/08 09:20:26;;;;;;;4.37;0.45;;;;;;;23.13;60.44;99929.34;4279758;33;20163;-93
2023/08/08 09:22:52;;;;;;;0.22;0.22;;;;;;;23.13;60.44;99931.16;4279941;33;20703;-95
2023/08/08 09:25:18;;;;;;;0.00;0.00;;;;;;;23.33;60.45;99946.31;4279852;33;20113;-93
2023/08/08 09:27:44;;;;;;;0.03;0.03;;;;;;;23.33;60.45;99938.34;4268043;33;20108;-94
2023/08/08 09:30:10;;;;;;;0.00;0.00;;;;;;;23.27;60.45;99937.03;4268108;33;20115;-93
2023/08/08 09:32:36;;;;;;;0.00;0.00;;;;;;;23.31;60.45;99939.44;4268439;33;20116;-93
2023/08/08 09:35:01;;;;;;;2.17;0.70;;;;;;;23.21;60.45;99936.69;4274975;33;20112;-93
2023/08/08 09:37:28;;;;;;;0.45;0.30;;;;;;;23.53;60.46;99934.88;4274163;33;20177;-93
2023/08/08 09:39:59;;;;;;;0.30;0.30;;;;;;;23.58;60.47;99939.84;4268436;33;20473;-94
2023/08/08 09:42:29;;;;;;;0.82;0.75;;;;;;;23.65;60.46;99941.00;4267763;33;20096;-93
2023/08/08 09:44:55;;;;;;;0.10;0.10;;;;;;;23.95;60.48;99934.97;4267876;33;20707;-93
2023/08/08 09:47:22;;;;;;;0.03;0.03;;;;;;;23.92;60.48;99932.56;4267914;33;20124;-93
2023/08/08 09:49:47;;;;;;;0.00;0.00;;;;;;;23.94;60.48;99935.94;4267973;33;20161;-93
2023/08/08 09:52:13;;;;;;;0.62;0.55;;;;;;;23.79;60.47;99926.59;4267873;33;20437;-93
2023/08/08 09:54:38;;;;;;;0.00;0.00;;;;;;;23.88;60.49;99931.94;4267397;33;20125;-93
2023/08/08 09:57:04;;;;;;;0.00;0.00;;;;;;;24.15;60.50;99931.44;4266895;33;20155;-94
2023/08/08 09:59:29;;;;;;;0.20;0.15;;;;;;;24.15;60.50;99930.63;4268090;33;20469;-93
2023/08/08 10:01:55;;;;;;;0.25;0.22;;;;;;;23.82;60.49;99929.81;4267698;33;20108;-94
2023/08/08 10:04:20;;;;;;;0.00;0.00;;;;;;;23.88;60.48;99928.44;4267511;33;20124;-94
2023/08/08 10:06:46;;;;;;;0.00;0.00;;;;;;;23.93;60.48;99933.41;4267789;33;20165;-94
2023/08/08 10:09:11;;;;;;;0.10;0.10;;;;;;;23.84;60.48;99933.19;4279574;33;20101;-94
2023/08/08 10:11:37;;;;;;;0.00;0.00;;;;;;;23.97;60.49;99927.69;4267609;33;20111;-95
2023/08/08 10:14:06;;;;;;;0.10;0.10;;;;;;;24.08;60.50;99922.28;4267338;33;20152;-94
2023/08/08 10:16:33;;;;;;;0.00;0.00;;;;;;;24.27;60.50;99920.72;4268257;33;20108;-94
2023/08/08 10:18:59;;;;;;;2.47;0.62;;;;;;;24.56;60.52;99919.06;4267722;33;20100;-94
2023/08/08 10:21:24;;;;;;;0.00;0.00;;;;;;;24.39;60.51;99925.03;4267653;33;20105;-95
2023/08/08 10:24:00;;;;;;;0.00;0.00;;;;;;;24.22;60.50;99915.81;4267281;33;20753;-93
2023/08/08 10:26:28;;;;;;;1.45;0.75;;;;;;;24.33;60.51;99915.72;4268612;33;20168;-94
2023/08/08 10:28:55;;;;;;;0.10;0.10;;;;;;;24.42;60.51;99917.63;4267645;33;20123;-94
2023/08/08 10:31:21;;;;;;;0.00;0.00;;;;;;;24.61;60.52;99914.19;4267567;33;20093;-95
2023/08/08 10:33:46;;;;;;;0.22;0.22;;;;;;;24.97;60.54;99911.91;4267544;33;20139;-94
2023/08/08 10:36:13;;;;;;;0.00;0.00;;;;;;;25.11;60.55;99910.72;4267711;33;20155;-94
2023/08/08 10:38:50;;;;;;;0.10;0.00;;;;;;;24.89;60.54;99903.78;4267589;33;20544;-94
2023/08/08 10:41:17;;;;;;;0.00;0.00;;;;;;;24.88;60.53;99902.94;4267837;33;20112;-94
2023/08/08 10:43:53;;;;;;;0.00;0.00;;;;;;;24.66;60.52;99906.66;4267403;33;20516;-94
2023/08/08 10:46:26;;;;;;;0.15;0.15;;;;;;;24.64;60.53;99910.44;4267364;33;20116;-94
2023/08/08 10:49:02;;;;;;;0.00;0.00;;;;;;;24.61;60.53;99906.22;4267698;33;20160;-95
2023/08/08 10:51:37;;;;;;;0.00;0.00;;;;;;;24.54;60.52;99910.37;4267547;33;20200;-93
2023/08/08 10:54:06;;;;;;;1.45;0.28;;;;;;;24.51;60.51;99909.81;4279198;33;20821;-93
2023/08/08 10:56:32;;;;;;;0.00;0.00;;;;;;;24.49;60.51;99902.78;4267423;33;20116;-93
2023/08/08 10:58:57;;;;;;;0.10;0.10;;;;;;;24.65;60.53;99902.31;4267542;33;20100;-94
2023/08/08 11:01:26;;;;;;;0.10;0.10;;;;;;;24.61;60.52;99900.06;4266969;33;20140;-94
2023/08/08 11:03:51;;;;;;;0.00;0.00;;;;;;;24.65;60.52;99901.47;4267492;33;20077;-94
2023/08/08 11:06:16;;;;;;;0.00;0.00;;;;;;;24.71;60.53;99895.59;4267377;33;20144;-93
2023/08/08 11:08:42;;;;;;;0.00;0.00;;;;;;;24.76;60.53;99896.03;4267036;33;20172;-93
2023/08/08 11:11:07;;;;;;;0.00;0.00;;;;;;;24.88;60.53;99902.09;4278075;33;20100;-94
2023/08/08 11:13:33;;;;;;;0.08;0.08;;;;;;;25.09;60.55;99895.72;4271278;33;20109;-94
2023/08/08 11:16:01;;;;;;;0.00;0.00;;;;;;;25.23;60.56;99894.44;4267672;33;20126;-93
2023/08/08 11:18:27;;;;;;;0.00;0.00;;;;;;;25.00;60.54;99895.69;4267926;33;20104;-94
2023/08/08 11:20:53;;;;;;;0.20;0.20;;;;;;;25.39;60.57;99892.09;4267355;33;20101;-94
2023/08/08 11:23:20;;;;;;;0.85;0.30;;;;;;;25.55;60.58;99885.31;4267231;33;20127;-95
2023/08/08 11:25:46;;;;;;;0.05;0.03;;;;;;;25.53;60.58;99884.63;4267483;33;20116;-94
2023/08/08 11:28:11;;;;;;;0.65;0.65;;;;;;;25.73;60.58;99888.16;4267291;33;20120;-95